New Champion — V7GG2 — position and weather

sailwx.info

Track history (hours):
 
Tides and Currents Weather Stations Pressure Air Temp Water Temp Dewpoint Dewpoint Depression Visibility Wind Speed Wind Dir Waves Ship Positions

New Champion

Last reported at 2015-Sep-01 19:20 UTC. Time now 2015-Sep-02 00:26 UTC.
Position N 36°11' W 002°48'.

Length 228 m; draft 11.4 m.

Type: Ship (hazmat cat A). MMSI: 537985031.

Date/timePositionNaut miles runAvg speedWind from/ knotsBaromVisibWave heightAir tempDewpointWater temp
2015-Sep-01 19:20N 36°11' W 002°48'209 8.1
2015-Aug-31 17:33N 35°60' W 007°06'2115.1
2015-Aug-31 16:09N 36°03' W 007°32'913.7
2015-Aug-31 15:27N 36°04' W 007°44'4714.5
2015-Aug-31 12:14N 36°11' W 008°41'1116.0
2015-Aug-31 11:33N 36°12' W 008°54'1615.4
2015-Aug-31 10:30N 36°16' W 009°14'1716.5
2015-Aug-31 09:28N 36°26' W 009°31'1516.1
2015-Aug-31 08:33N 36°34' W 009°46'1515.1
2015-Aug-31 07:33N 36°45' W 009°59'4715.8
2015-Aug-31 04:33N 37°31' W 010°13'1716.4
2015-Aug-31 03:32N 37°48' W 010°18'1616.0
2015-Aug-31 02:33N 38°03' W 010°23'1615.8
2015-Aug-31 01:31N 38°19' W 010°27'1516.0
2015-Aug-31 00:34N 38°34' W 010°32'1615.5
2015-Aug-30 23:31N 38°50' W 010°36'1515.5
2015-Aug-30 22:33N 39°05' W 010°35'2216.2
2015-Aug-30 21:12N 39°27' W 010°34'7516.2
2015-Aug-30 16:34N 40°42' W 010°30'63915.6
2015-Aug-28 23:32N 50°47' W 005°36'9715.6
2015-Aug-28 17:18N 51°22' W 003°12'7 9.2
2015-Aug-28 16:33N 51°25' W 003°02'10 9.8
2015-Aug-28 15:33N 51°29' W 002°48'3 3.0
2015-Aug-28 14:33N 51°30' W 002°43'0 0.2
2015-Aug-28 13:31N 51°30' W 002°43'0 0.0
2015-Aug-28 12:31N 51°30' W 002°43'0 0.0
2015-Aug-28 11:31N 51°30' W 002°43'0 0.0
2015-Aug-28 10:31N 51°30' W 002°43'0 0.0
2015-Aug-28 09:31N 51°30' W 002°43'0 0.0
2015-Aug-28 08:31N 51°30' W 002°43'0 0.0
2015-Aug-28 07:31N 51°30' W 002°43'0 0.0
2015-Aug-28 06:31N 51°30' W 002°43'0 0.0
2015-Aug-28 05:31N 51°30' W 002°43'0 0.0
2015-Aug-28 04:31N 51°30' W 002°43'0 0.0
2015-Aug-28 03:31N 51°30' W 002°43'0 0.0
2015-Aug-28 02:31N 51°30' W 002°43'0 0.0
2015-Aug-28 01:31N 51°30' W 002°43'0 0.0
2015-Aug-28 00:31N 51°30' W 002°43'0 0.0
2015-Aug-27 23:31N 51°30' W 002°43'0 0.0
2015-Aug-27 22:31N 51°30' W 002°43'0 0.0
2015-Aug-27 21:31N 51°30' W 002°43'0 0.0
2015-Aug-27 20:31N 51°30' W 002°43'0 0.0
2015-Aug-27 19:31N 51°30' W 002°43'0 0.0
2015-Aug-27 18:31N 51°30' W 002°43'0 0.0
2015-Aug-27 17:31N 51°30' W 002°43'0 0.0
2015-Aug-27 16:31N 51°30' W 002°43'0 0.0
2015-Aug-27 15:31N 51°30' W 002°43'0 0.0
2015-Aug-27 14:31N 51°30' W 002°43'0 0.0
2015-Aug-27 13:31N 51°30' W 002°43'0 0.0
2015-Aug-27 12:31N 51°30' W 002°43'0 0.0
2015-Aug-27 11:31N 51°30' W 002°43'0 0.0
2015-Aug-27 10:31N 51°30' W 002°43'0 0.0
2015-Aug-27 09:31N 51°30' W 002°43'0 0.0
2015-Aug-27 08:31N 51°30' W 002°43'0 0.0
2015-Aug-27 07:31N 51°30' W 002°43'0 0.0
2015-Aug-27 06:31N 51°30' W 002°43'0 0.0
2015-Aug-27 05:31N 51°30' W 002°43'0 0.0
2015-Aug-27 04:31N 51°30' W 002°43'0 0.0
2015-Aug-27 03:31N 51°30' W 002°43'0 0.0
2015-Aug-27 02:31N 51°30' W 002°43'0 0.0
2015-Aug-27 01:31N 51°30' W 002°43'0 0.0
2015-Aug-27 00:31N 51°30' W 002°43'0 0.0
2015-Aug-26 23:31N 51°30' W 002°43'0 0.0
2015-Aug-26 22:31N 51°30' W 002°43'0 0.0
2015-Aug-26 21:31N 51°30' W 002°43'0 0.0
2015-Aug-26 20:31N 51°30' W 002°43'0 0.0
2015-Aug-26 19:31N 51°30' W 002°43'0 0.0
2015-Aug-26 18:31N 51°30' W 002°43'0 0.0
2015-Aug-26 17:31N 51°30' W 002°43'0 0.1
2015-Aug-26 16:33N 51°30' W 002°43'0 0.4
2015-Aug-26 15:33N 51°30' W 002°44'3 3.0
2015-Aug-26 14:33N 51°29' W 002°48'9 8.5
2015-Aug-26 13:33N 51°26' W 003°01'  
2015-Aug-23 19:29N 50°52' W 005°28'1412.6
2015-Aug-23 18:24N 50°43' W 005°44'  
Track history (hours):
 
Tides and Currents Weather Stations Pressure Air Temp Water Temp Dewpoint Dewpoint Depression Visibility Wind Speed Wind Dir Waves Ship Positions

New Champion

Last reported at 2015-Sep-01 19:20 UTC. Time now 2015-Sep-02 00:26 UTC.
Position N 36°11' W 002°48'.

Length 228 m; draft 11.4 m.

Type: Ship (hazmat cat A). MMSI: 537985031.

Date/timePositionNaut miles runAvg speedWind from/ knotsBaromVisibWave heightAir tempDewpointWater temp
2015-Sep-01 19:20N 36°11' W 002°48'209 8.1
2015-Aug-31 17:33N 35°60' W 007°06'2115.1
2015-Aug-31 16:09N 36°03' W 007°32'913.7
2015-Aug-31 15:27N 36°04' W 007°44'4714.5
2015-Aug-31 12:14N 36°11' W 008°41'1116.0
2015-Aug-31 11:33N 36°12' W 008°54'1615.4
2015-Aug-31 10:30N 36°16' W 009°14'1716.5
2015-Aug-31 09:28N 36°26' W 009°31'1516.1
2015-Aug-31 08:33N 36°34' W 009°46'1515.1
2015-Aug-31 07:33N 36°45' W 009°59'4715.8
2015-Aug-31 04:33N 37°31' W 010°13'1716.4
2015-Aug-31 03:32N 37°48' W 010°18'1616.0
2015-Aug-31 02:33N 38°03' W 010°23'1615.8
2015-Aug-31 01:31N 38°19' W 010°27'1516.0
2015-Aug-31 00:34N 38°34' W 010°32'1615.5
2015-Aug-30 23:31N 38°50' W 010°36'1515.5
2015-Aug-30 22:33N 39°05' W 010°35'2216.2
2015-Aug-30 21:12N 39°27' W 010°34'7516.2
2015-Aug-30 16:34N 40°42' W 010°30'63915.6
2015-Aug-28 23:32N 50°47' W 005°36'9715.6
2015-Aug-28 17:18N 51°22' W 003°12'7 9.2
2015-Aug-28 16:33N 51°25' W 003°02'10 9.8
2015-Aug-28 15:33N 51°29' W 002°48'3 3.0
2015-Aug-28 14:33N 51°30' W 002°43'0 0.2
2015-Aug-28 13:31N 51°30' W 002°43'0 0.0
2015-Aug-28 12:31N 51°30' W 002°43'0 0.0
2015-Aug-28 11:31N 51°30' W 002°43'0 0.0
2015-Aug-28 10:31N 51°30' W 002°43'0 0.0
2015-Aug-28 09:31N 51°30' W 002°43'0 0.0
2015-Aug-28 08:31N 51°30' W 002°43'0 0.0
2015-Aug-28 07:31N 51°30' W 002°43'0 0.0
2015-Aug-28 06:31N 51°30' W 002°43'0 0.0
2015-Aug-28 05:31N 51°30' W 002°43'0 0.0
2015-Aug-28 04:31N 51°30' W 002°43'0 0.0
2015-Aug-28 03:31N 51°30' W 002°43'0 0.0
2015-Aug-28 02:31N 51°30' W 002°43'0 0.0
2015-Aug-28 01:31N 51°30' W 002°43'0 0.0
2015-Aug-28 00:31N 51°30' W 002°43'0 0.0
2015-Aug-27 23:31N 51°30' W 002°43'0 0.0
2015-Aug-27 22:31N 51°30' W 002°43'0 0.0
2015-Aug-27 21:31N 51°30' W 002°43'0 0.0
2015-Aug-27 20:31N 51°30' W 002°43'0 0.0
2015-Aug-27 19:31N 51°30' W 002°43'0 0.0
2015-Aug-27 18:31N 51°30' W 002°43'0 0.0
2015-Aug-27 17:31N 51°30' W 002°43'0 0.0
2015-Aug-27 16:31N 51°30' W 002°43'0 0.0
2015-Aug-27 15:31N 51°30' W 002°43'0 0.0
2015-Aug-27 14:31N 51°30' W 002°43'0 0.0
2015-Aug-27 13:31N 51°30' W 002°43'0 0.0
2015-Aug-27 12:31N 51°30' W 002°43'0 0.0
2015-Aug-27 11:31N 51°30' W 002°43'0 0.0
2015-Aug-27 10:31N 51°30' W 002°43'0 0.0
2015-Aug-27 09:31N 51°30' W 002°43'0 0.0
2015-Aug-27 08:31N 51°30' W 002°43'0 0.0
2015-Aug-27 07:31N 51°30' W 002°43'0 0.0
2015-Aug-27 06:31N 51°30' W 002°43'0 0.0
2015-Aug-27 05:31N 51°30' W 002°43'0 0.0
2015-Aug-27 04:31N 51°30' W 002°43'0 0.0
2015-Aug-27 03:31N 51°30' W 002°43'0 0.0
2015-Aug-27 02:31N 51°30' W 002°43'0 0.0
2015-Aug-27 01:31N 51°30' W 002°43'0 0.0
2015-Aug-27 00:31N 51°30' W 002°43'0 0.0
2015-Aug-26 23:31N 51°30' W 002°43'0 0.0
2015-Aug-26 22:31N 51°30' W 002°43'0 0.0
2015-Aug-26 21:31N 51°30' W 002°43'0 0.0
2015-Aug-26 20:31N 51°30' W 002°43'0 0.0
2015-Aug-26 19:31N 51°30' W 002°43'0 0.0
2015-Aug-26 18:31N 51°30' W 002°43'0 0.0
2015-Aug-26 17:31N 51°30' W 002°43'0 0.1
2015-Aug-26 16:33N 51°30' W 002°43'0 0.4
2015-Aug-26 15:33N 51°30' W 002°44'3 3.0
2015-Aug-26 14:33N 51°29' W 002°48'9 8.5
2015-Aug-26 13:33N 51°26' W 003°01'  
2015-Aug-23 19:29N 50°52' W 005°28'1412.6
2015-Aug-23 18:24N 50°43' W 005°44'  

Dump ship's entire track history